WetterOnline ( https://www.wetteronline.de )

Wetter aktuell Ulm

Aktuelles Wetter: Ulm-Mähringen (592m)

6-stündlich | Neueste Meldungen
Ortszeit Temperatur Wetter
Fr, 23.02. 19:00 3.0° C bedeckt
Fr, 23.02. 13:00 3.5° C bedeckt
Fr, 23.02. 7:00 2.3° C wolkig
Fr, 23.02. 1:00 6.9° C bewölkt
Do, 22.02. 19:00 8.0° C leichter Regen
Do, 22.02. 13:00 8.5° C leichter Regen
Do, 22.02. 7:00 6.6° C leichter Regen
Do, 22.02. 1:00 7.0° C bedeckt
Ortszeit Temperatur Wetter
Fr, 23.02. 21:30 -0.1° C bedeckt
Fr, 23.02. 21:20 -0.1° C bedeckt
Fr, 23.02. 21:10 -0.5° C wolkig
Fr, 23.02. 21:00 0.9° C leicht bewölkt
Fr, 23.02. 20:50 0.9° C leicht bewölkt
Fr, 23.02. 20:40 -0.2° C leicht bewölkt
Fr, 23.02. 20:30 1.2° C bewölkt
Fr, 23.02. 20:00 1.9° C bedeckt
Fr, 23.02. 19:30 2.6° C bedeckt
Fr, 23.02. 19:00 3.0° C bedeckt
Fr, 23.02. 18:30 3.1° C bedeckt
Ortszeit Relative Feuchte Sichtweite
Fr, 23.02. 19:00 78% >70 km
Fr, 23.02. 13:00 76% 55 km
Fr, 23.02. 7:00 88% >70 km
Fr, 23.02. 1:00 76% >70 km
Do, 22.02. 19:00 93% 20 km
Do, 22.02. 13:00 85% 23 km
Do, 22.02. 7:00 93% 26 km
Do, 22.02. 1:00 70% 60 km
Ortszeit Relative Feuchte Sichtweite
Fr, 23.02. 21:30 91% 60 km
Fr, 23.02. 21:20 91% -
Fr, 23.02. 21:10 91% -
Fr, 23.02. 21:00 90% 55 km
Fr, 23.02. 20:50 90% -
Fr, 23.02. 20:40 90% -
Fr, 23.02. 20:30 86% 60 km
Fr, 23.02. 20:00 83% 60 km
Fr, 23.02. 19:30 79% 60 km
Fr, 23.02. 19:00 78% >70 km
Fr, 23.02. 18:30 77% 60 km
Ortszeit Niederschlagsmenge Niederschlagsart
Fr, 23.02. 19:00 0.0 l/m2 in 12 Std. -
Fr, 23.02. 13:00 0.0 l/m2 in 6 Std. -
Fr, 23.02. 7:00 4 l/m2 in 12 Std. Regen
Fr, 23.02. 1:00 2 l/m2 in 6 Std. Regen
Do, 22.02. 19:00 9 l/m2 in 12 Std. Regen
Do, 22.02. 13:00 3 l/m2 in 6 Std. Regen
Do, 22.02. 7:00 2 l/m2 in 12 Std. Regen
Do, 22.02. 1:00 0.1 l/m2 in 6 Std. Regen
Ortszeit Niederschlagsmenge Niederschlagsart
Fr, 23.02. 21:30 0.0 l/m2 in 30 Min -
Fr, 23.02. 21:20 keine Meldung -
Fr, 23.02. 21:10 keine Meldung -
Fr, 23.02. 21:00 0.0 l/m2 in 1 Std. -
Fr, 23.02. 20:50 keine Meldung -
Fr, 23.02. 20:40 keine Meldung -
Fr, 23.02. 20:30 0.0 l/m2 in 30 Min -
Fr, 23.02. 20:00 0.0 l/m2 in 1 Std. -
Fr, 23.02. 19:30 0.0 l/m2 in 30 Min -
Fr, 23.02. 19:00 0.0 l/m2 in 1 Std. -
Fr, 23.02. 18:30 0.0 l/m2 in 30 Min -
Ortszeit Stärke Spitze Richtung
km/h Bft. km/h Grad Sektor
Fr, 23.02. 19:00 9 2 22 190° S
Fr, 23.02. 13:00 11 2 22 220° SW
Fr, 23.02. 7:00 9 2 50 210° SW
Fr, 23.02. 1:00 24 4 48 230° SW
Do, 22.02. 19:00 22 4 58 220° SW
Do, 22.02. 13:00 31 5 63 220° SW
Do, 22.02. 7:00 22 4 36 220° SW
Do, 22.02. 1:00 11 2 29 200° S
Ortszeit Stärke Spitze Richtung
km/h Bft. km/h Grad Sektor
Fr, 23.02. 21:30 4 1 4 260° W
Fr, 23.02. 21:20 4 1 - 260° W
Fr, 23.02. 21:10 4 1 - 260° W
Fr, 23.02. 21:00 2 1 7 210° SW
Fr, 23.02. 20:50 2 1 - 210° SW
Fr, 23.02. 20:40 4 1 - 240° SW
Fr, 23.02. 20:30 6 1 7 180° S
Fr, 23.02. 20:00 6 1 13 190° S
Fr, 23.02. 19:30 7 2 14 220° SW
Fr, 23.02. 19:00 9 2 15 190° S
Fr, 23.02. 18:30 9 2 15 170° S
Ortszeit Untergrenze Bedeckung Gattung
total tief tief mittel hoch
Fr, 23.02. 19:00 5400 m 8/8 8/8 - - -
Fr, 23.02. 13:00 3600 m 8/8 8/8 - - -
Fr, 23.02. 7:00 900 m 8/8 1/8 - - -
Fr, 23.02. 1:00 780 m 7/8 7/8 - - -
Do, 22.02. 19:00 240 m 7/8 7/8 - - -
Do, 22.02. 13:00 510 m 7/8 7/8 - - -
Do, 22.02. 7:00 240 m 7/8 7/8 - - -
Do, 22.02. 1:00 1500 m 8/8 8/8 - - -
Ortszeit Bedeckungsgrad in Achtel und Wolkenuntergrenze
Fr, 23.02. 21:30 8(5700m)
Fr, 23.02. 21:20 8(5700m)
Fr, 23.02. 21:10 6
Fr, 23.02. 21:00 2(6000m)
Fr, 23.02. 20:50 2(6000m)
Fr, 23.02. 20:40 4
Fr, 23.02. 20:30 7(5700m) 7(6900m)
Fr, 23.02. 20:00 8(5400m) 8(6300m)
Fr, 23.02. 19:30 8(5400m)
Fr, 23.02. 19:00 8(5400m)
Fr, 23.02. 18:30 8(5100m)
Ortszeit Luftdruck NN (hPa) Tendenz (hPa in 3 Std.)
Fr, 23.02. 19:00 1001 - 0,1
Fr, 23.02. 13:00 1002 + 0,4
Fr, 23.02. 7:00 1001 + 0,4
Fr, 23.02. 1:00 997 + 3,1
Do, 22.02. 19:00 995 - 1,5
Do, 22.02. 13:00 1001 - 2,9
Do, 22.02. 7:00 1006 - 2,0
Do, 22.02. 1:00 1011 - 3,0
Ortszeit Luftdruck NN (hPa) Tendenz (hPa in 3 Std.)
Fr, 23.02. 21:30 1001 + 0,1
Fr, 23.02. 21:20 1001 keine Meldung
Fr, 23.02. 21:10 1001 keine Meldung
Fr, 23.02. 21:00 1001 + 0,2
Fr, 23.02. 20:50 1001 keine Meldung
Fr, 23.02. 20:40 1001 keine Meldung
Fr, 23.02. 20:30 1001 + 0,4
Fr, 23.02. 20:00 1001 + 0,1
Fr, 23.02. 19:30 1000 0,0
Fr, 23.02. 19:00 1001 - 0,1
Fr, 23.02. 18:30 1000 - 0,4
Ortszeit Schneehöhe (cm)
Fr, 23.02. 19:00 0
Fr, 23.02. 13:00 0
Fr, 23.02. 7:00 0
Fr, 23.02. 1:00 0
Do, 22.02. 19:00 0
Do, 22.02. 13:00 0
Do, 22.02. 7:00 0
Do, 22.02. 1:00 0
Ortszeit Schneehöhe (cm)
Fr, 23.02. 21:30 0
Fr, 23.02. 21:20 0
Fr, 23.02. 21:10 -
Fr, 23.02. 21:00 0
Fr, 23.02. 20:50 0
Fr, 23.02. 20:40 -
Fr, 23.02. 20:30 0
Fr, 23.02. 20:00 0
Fr, 23.02. 19:30 0
Fr, 23.02. 19:00 0
Fr, 23.02. 18:30 0
Link zu dieser Seite / Seite empfehlen

Das Wetter in ...